sensor_id;sensor_type;location;lat;lon;timestamp;pressure;altitude;pressure_sealevel;temperature
67829;BMP280;54626;45.436;10.942;2022-12-22T00:01:40;100993.31;;;7.11
67829;BMP280;54626;45.436;10.942;2022-12-22T00:04:26;100991.59;;;7.14
67829;BMP280;54626;45.436;10.942;2022-12-22T00:07:11;100982.09;;;7.15
67829;BMP280;54626;45.436;10.942;2022-12-22T00:09:56;100973.34;;;7.16
67829;BMP280;54626;45.436;10.942;2022-12-22T00:12:41;100970.81;;;7.18
67829;BMP280;54626;45.436;10.942;2022-12-22T00:15:28;100985.09;;;7.17
67829;BMP280;54626;45.436;10.942;2022-12-22T00:18:16;100973.81;;;7.09
67829;BMP280;54626;45.436;10.942;2022-12-22T00:21:02;100970.84;;;7.13
67829;BMP280;54626;45.436;10.942;2022-12-22T00:23:47;100978.84;;;7.16
67829;BMP280;54626;45.436;10.942;2022-12-22T00:26:33;100967.56;;;7.14
67829;BMP280;54626;45.436;10.942;2022-12-22T00:29:20;100972.84;;;7.18
67829;BMP280;54626;45.436;10.942;2022-12-22T00:32:09;100972.59;;;7.16
67829;BMP280;54626;45.436;10.942;2022-12-22T00:34:56;100975.81;;;7.14
67829;BMP280;54626;45.436;10.942;2022-12-22T00:37:42;100970.59;;;7.16
67829;BMP280;54626;45.436;10.942;2022-12-22T00:40:27;100966.59;;;7.17
67829;BMP280;54626;45.436;10.942;2022-12-22T00:43:13;100958.34;;;7.17
67829;BMP280;54626;45.436;10.942;2022-12-22T00:45:58;100952.31;;;7.19
67829;BMP280;54626;45.436;10.942;2022-12-22T00:48:46;100951.06;;;7.20
67829;BMP280;54626;45.436;10.942;2022-12-22T00:51:35;100951.81;;;7.20
67829;BMP280;54626;45.436;10.942;2022-12-22T00:54:21;100940.09;;;7.14
67829;BMP280;54626;45.436;10.942;2022-12-22T00:57:15;100943.09;;;7.22
67829;BMP280;54626;45.436;10.942;2022-12-22T01:00:04;100938.56;;;7.19
67829;BMP280;54626;45.436;10.942;2022-12-22T01:02:50;100934.59;;;7.14
67829;BMP280;54626;45.436;10.942;2022-12-22T01:05:35;100936.09;;;7.15
67829;BMP280;54626;45.436;10.942;2022-12-22T01:08:20;100944.81;;;7.19
67829;BMP280;54626;45.436;10.942;2022-12-22T01:11:07;100942.34;;;7.16
67829;BMP280;54626;45.436;10.942;2022-12-22T01:13:52;100933.34;;;7.15
67829;BMP280;54626;45.436;10.942;2022-12-22T01:16:37;100938.09;;;7.15
67829;BMP280;54626;45.436;10.942;2022-12-22T01:19:21;100935.06;;;7.18
67829;BMP280;54626;45.436;10.942;2022-12-22T01:22:10;100937.81;;;7.18
67829;BMP280;54626;45.436;10.942;2022-12-22T01:24:55;100932.31;;;7.18
67829;BMP280;54626;45.436;10.942;2022-12-22T01:27:40;100928.84;;;7.18
67829;BMP280;54626;45.436;10.942;2022-12-22T01:30:26;100938.56;;;7.19
67829;BMP280;54626;45.436;10.942;2022-12-22T01:33:12;100938.56;;;7.19
67829;BMP280;54626;45.436;10.942;2022-12-22T01:36:00;100927.84;;;7.21
67829;BMP280;54626;45.436;10.942;2022-12-22T01:38:46;100929.09;;;7.20
67829;BMP280;54626;45.436;10.942;2022-12-22T01:41:31;100938.84;;;7.21
67829;BMP280;54626;45.436;10.942;2022-12-22T01:44:19;100933.59;;;7.23
67829;BMP280;54626;45.436;10.942;2022-12-22T01:50:29;100923.31;;;7.23
67829;BMP280;54626;45.436;10.942;2022-12-22T01:53:24;100922.81;;;7.19
67829;BMP280;54626;45.436;10.942;2022-12-22T01:56:10;100916.84;;;7.21
67829;BMP280;54626;45.436;10.942;2022-12-22T01:58:59;100923.31;;;7.23
67829;BMP280;54626;45.436;10.942;2022-12-22T02:01:46;100929.81;;;7.20
67829;BMP280;54626;45.436;10.942;2022-12-22T02:04:39;100939.84;;;7.18
67829;BMP280;54626;45.436;10.942;2022-12-22T02:10:57;100936.34;;;7.12
67829;BMP280;54626;45.436;10.942;2022-12-22T02:14:09;100931.31;;;7.10
67829;BMP280;54626;45.436;10.942;2022-12-22T02:26:50;100923.31;;;7.01
67829;BMP280;54626;45.436;10.942;2022-12-22T02:29:48;100921.34;;;7.02
67829;BMP280;54626;45.436;10.942;2022-12-22T02:32:40;100915.84;;;7.02
67829;BMP280;54626;45.436;10.942;2022-12-22T02:35:55;100922.06;;;7.02
67829;BMP280;54626;45.436;10.942;2022-12-22T02:38:58;100909.84;;;6.98
67829;BMP280;54626;45.436;10.942;2022-12-22T02:42:07;100910.84;;;6.95
67829;BMP280;54626;45.436;10.942;2022-12-22T02:45:19;100909.09;;;6.92
67829;BMP280;54626;45.436;10.942;2022-12-22T02:48:36;100912.09;;;6.94
67829;BMP280;54626;45.436;10.942;2022-12-22T02:51:21;100907.34;;;6.94
67829;BMP280;54626;45.436;10.942;2022-12-22T02:54:08;100907.56;;;6.96
67829;BMP280;54626;45.436;10.942;2022-12-22T02:56:54;100912.59;;;6.98
67829;BMP280;54626;45.436;10.942;2022-12-22T02:59:38;100915.06;;;6.96
67829;BMP280;54626;45.436;10.942;2022-12-22T03:02:23;100908.59;;;6.93
67829;BMP280;54626;45.436;10.942;2022-12-22T03:05:08;100903.09;;;6.99
67829;BMP280;54626;45.436;10.942;2022-12-22T03:07:53;100901.84;;;7.00
67829;BMP280;54626;45.436;10.942;2022-12-22T03:10:40;100907.34;;;7.00
67829;BMP280;54626;45.436;10.942;2022-12-22T03:13:26;100901.34;;;6.96
67829;BMP280;54626;45.436;10.942;2022-12-22T03:16:12;100896.09;;;6.98
67829;BMP280;54626;45.436;10.942;2022-12-22T03:18:58;100883.09;;;6.98
67829;BMP280;54626;45.436;10.942;2022-12-22T03:21:43;100879.34;;;7.01
67829;BMP280;54626;45.436;10.942;2022-12-22T03:24:28;100881.84;;;6.99
67829;BMP280;54626;45.436;10.942;2022-12-22T03:27:13;100875.13;;;6.95
67829;BMP280;54626;45.436;10.942;2022-12-22T03:29:40;100890.84;;;7.00
67829;BMP280;54626;45.436;10.942;2022-12-22T03:32:09;100879.59;;;6.98
67829;BMP280;54626;45.436;10.942;2022-12-22T03:34:35;100880.84;;;7.02
67829;BMP280;54626;45.436;10.942;2022-12-22T03:37:02;100870.59;;;7.03
67829;BMP280;54626;45.436;10.942;2022-12-22T03:39:28;100875.59;;;6.99
67829;BMP280;54626;45.436;10.942;2022-12-22T03:41:55;100877.34;;;7.02
67829;BMP280;54626;45.436;10.942;2022-12-22T03:44:40;100866.84;;;7.00
67829;BMP280;54626;45.436;10.942;2022-12-22T03:47:37;100867.09;;;7.02
67829;BMP280;54626;45.436;10.942;2022-12-22T03:50:04;100858.38;;;7.04
67829;BMP280;54626;45.436;10.942;2022-12-22T03:52:31;100856.34;;;7.04
67829;BMP280;54626;45.436;10.942;2022-12-22T03:55:03;100852.63;;;7.02
67829;BMP280;54626;45.436;10.942;2022-12-22T03:57:30;100861.59;;;7.02
67829;BMP280;54626;45.436;10.942;2022-12-22T03:59:56;100845.59;;;6.95
67829;BMP280;54626;45.436;10.942;2022-12-22T04:02:23;100856.09;;;7.02
67829;BMP280;54626;45.436;10.942;2022-12-22T04:04:49;100860.09;;;7.01
67829;BMP280;54626;45.436;10.942;2022-12-22T04:07:16;100855.63;;;7.04
67829;BMP280;54626;45.436;10.942;2022-12-22T04:09:47;100859.63;;;7.03
67829;BMP280;54626;45.436;10.942;2022-12-22T04:12:32;100860.88;;;7.02
67829;BMP280;54626;45.436;10.942;2022-12-22T04:15:18;100859.88;;;7.05
67829;BMP280;54626;45.436;10.942;2022-12-22T04:17:44;100855.09;;;7.00
67829;BMP280;54626;45.436;10.942;2022-12-22T04:20:11;100862.38;;;6.92
67829;BMP280;54626;45.436;10.942;2022-12-22T04:22:37;100857.59;;;6.92
67829;BMP280;54626;45.436;10.942;2022-12-22T04:25:09;100845.13;;;6.86
67829;BMP280;54626;45.436;10.942;2022-12-22T04:27:36;100857.34;;;6.90
67829;BMP280;54626;45.436;10.942;2022-12-22T04:30:03;100849.09;;;6.90
67829;BMP280;54626;45.436;10.942;2022-12-22T04:32:33;100837.13;;;6.88
67829;BMP280;54626;45.436;10.942;2022-12-22T04:35:06;100853.09;;;6.89
67829;BMP280;54626;45.436;10.942;2022-12-22T04:37:33;100839.63;;;6.86
67829;BMP280;54626;45.436;10.942;2022-12-22T04:40:00;100844.38;;;6.91
67829;BMP280;54626;45.436;10.942;2022-12-22T04:42:27;100844.63;;;6.93
67829;BMP280;54626;45.436;10.942;2022-12-22T04:44:57;100841.38;;;6.94
67829;BMP280;54626;45.436;10.942;2022-12-22T04:47:23;100840.63;;;6.94
67829;BMP280;54626;45.436;10.942;2022-12-22T04:49:50;100847.63;;;6.95
67829;BMP280;54626;45.436;10.942;2022-12-22T04:52:16;100851.84;;;6.90
67829;BMP280;54626;45.436;10.942;2022-12-22T04:54:43;100851.63;;;6.94
67829;BMP280;54626;45.436;10.942;2022-12-22T04:57:12;100850.88;;;6.88
67829;BMP280;54626;45.436;10.942;2022-12-22T04:59:39;100842.09;;;6.89
67829;BMP280;54626;45.436;10.942;2022-12-22T05:02:06;100845.38;;;6.88
67829;BMP280;54626;45.436;10.942;2022-12-22T05:04:33;100849.84;;;6.85
67829;BMP280;54626;45.436;10.942;2022-12-22T05:07:00;100849.09;;;6.85
67829;BMP280;54626;45.436;10.942;2022-12-22T05:09:26;100858.09;;;6.85
67829;BMP280;54626;45.436;10.942;2022-12-22T05:11:53;100855.38;;;6.91
67829;BMP280;54626;45.436;10.942;2022-12-22T05:14:20;100851.84;;;6.90
67829;BMP280;54626;45.436;10.942;2022-12-22T05:16:46;100859.88;;;6.94
67829;BMP280;54626;45.436;10.942;2022-12-22T05:19:13;100860.88;;;6.91
67829;BMP280;54626;45.436;10.942;2022-12-22T05:21:42;100858.84;;;6.91
67829;BMP280;54626;45.436;10.942;2022-12-22T05:24:12;100858.34;;;6.87
67829;BMP280;54626;45.436;10.942;2022-12-22T05:26:40;100867.88;;;6.92
67829;BMP280;54626;45.436;10.942;2022-12-22T05:29:07;100873.84;;;6.96
67829;BMP280;54626;45.436;10.942;2022-12-22T05:31:36;100865.84;;;6.98
67829;BMP280;54626;45.436;10.942;2022-12-22T05:34:12;100869.34;;;6.98
67829;BMP280;54626;45.436;10.942;2022-12-22T05:36:38;100871.34;;;6.92
67829;BMP280;54626;45.436;10.942;2022-12-22T05:39:05;100875.59;;;6.93
67829;BMP280;54626;45.436;10.942;2022-12-22T05:41:35;100860.63;;;6.94
67829;BMP280;54626;45.436;10.942;2022-12-22T05:44:05;100868.59;;;6.87
67829;BMP280;54626;45.436;10.942;2022-12-22T05:46:32;100875.81;;;6.84
67829;BMP280;54626;45.436;10.942;2022-12-22T05:49:00;100869.84;;;6.86
67829;BMP280;54626;45.436;10.942;2022-12-22T05:51:27;100868.34;;;6.85
67829;BMP280;54626;45.436;10.942;2022-12-22T05:53:54;100876.84;;;6.81
67829;BMP280;54626;45.436;10.942;2022-12-22T05:56:20;100865.84;;;6.87
67829;BMP280;54626;45.436;10.942;2022-12-22T05:58:47;100855.84;;;6.89
67829;BMP280;54626;45.436;10.942;2022-12-22T06:01:13;100856.09;;;6.86
67829;BMP280;54626;45.436;10.942;2022-12-22T06:03:43;100835.13;;;6.83
67829;BMP280;54626;45.436;10.942;2022-12-22T06:06:12;100843.88;;;6.76
67829;BMP280;54626;45.436;10.942;2022-12-22T06:08:39;100838.63;;;6.78
67829;BMP280;54626;45.436;10.942;2022-12-22T06:11:05;100838.63;;;6.78
67829;BMP280;54626;45.436;10.942;2022-12-22T06:13:32;100842.63;;;6.77
67829;BMP280;54626;45.436;10.942;2022-12-22T06:15:58;100853.09;;;6.84
67829;BMP280;54626;45.436;10.942;2022-12-22T06:18:25;100845.38;;;6.82
67829;BMP280;54626;45.436;10.942;2022-12-22T06:20:54;100847.59;;;6.84
67829;BMP280;54626;45.436;10.942;2022-12-22T06:23:21;100847.88;;;6.86
67829;BMP280;54626;45.436;10.942;2022-12-22T06:26:00;100853.34;;;6.86
67829;BMP280;54626;45.436;10.942;2022-12-22T06:28:30;100855.84;;;6.84
67829;BMP280;54626;45.436;10.942;2022-12-22T06:30:56;100839.38;;;6.78
67829;BMP280;54626;45.436;10.942;2022-12-22T06:33:30;100840.09;;;6.84
67829;BMP280;54626;45.436;10.942;2022-12-22T06:35:56;100846.09;;;6.83
67829;BMP280;54626;45.436;10.942;2022-12-22T06:38:26;100839.13;;;6.82
67829;BMP280;54626;45.436;10.942;2022-12-22T06:40:52;100831.38;;;6.86
67829;BMP280;54626;45.436;10.942;2022-12-22T06:43:19;100841.84;;;6.87
67829;BMP280;54626;45.436;10.942;2022-12-22T06:45:45;100846.34;;;6.90
67829;BMP280;54626;45.436;10.942;2022-12-22T06:48:12;100836.38;;;6.93
67829;BMP280;54626;45.436;10.942;2022-12-22T06:50:40;100843.09;;;6.97
67829;BMP280;54626;45.436;10.942;2022-12-22T06:53:07;100838.38;;;6.98
67829;BMP280;54626;45.436;10.942;2022-12-22T06:55:36;100843.88;;;6.98
67829;BMP280;54626;45.436;10.942;2022-12-22T06:58:04;100846.13;;;6.94
67829;BMP280;54626;45.436;10.942;2022-12-22T07:00:31;100855.34;;;6.96
67829;BMP280;54626;45.436;10.942;2022-12-22T07:02:57;100851.09;;;6.95
67829;BMP280;54626;45.436;10.942;2022-12-22T07:05:25;100849.09;;;6.96
67829;BMP280;54626;45.436;10.942;2022-12-22T07:07:52;100846.09;;;6.99
67829;BMP280;54626;45.436;10.942;2022-12-22T07:10:21;100842.63;;;6.99
67829;BMP280;54626;45.436;10.942;2022-12-22T07:13:07;100846.13;;;7.05
67829;BMP280;54626;45.436;10.942;2022-12-22T07:15:48;100850.84;;;7.04
67829;BMP280;54626;45.436;10.942;2022-12-22T07:18:25;100851.63;;;7.05
67829;BMP280;54626;45.436;10.942;2022-12-22T07:20:52;100855.63;;;7.04
67829;BMP280;54626;45.436;10.942;2022-12-22T07:23:19;100848.38;;;7.06
67829;BMP280;54626;45.436;10.942;2022-12-22T07:25:48;100857.34;;;7.01
67829;BMP280;54626;45.436;10.942;2022-12-22T07:28:14;100869.63;;;7.06
67829;BMP280;54626;45.436;10.942;2022-12-22T07:30:49;100873.63;;;7.05
67829;BMP280;54626;45.436;10.942;2022-12-22T07:33:19;100884.09;;;7.06
67829;BMP280;54626;45.436;10.942;2022-12-22T07:35:45;100883.84;;;7.04
67829;BMP280;54626;45.436;10.942;2022-12-22T07:38:12;100887.09;;;7.03
67829;BMP280;54626;45.436;10.942;2022-12-22T07:40:39;100889.34;;;7.04
67829;BMP280;54626;45.436;10.942;2022-12-22T07:43:17;100884.34;;;7.14
67829;BMP280;54626;45.436;10.942;2022-12-22T07:45:43;100879.09;;;7.16
67829;BMP280;54626;45.436;10.942;2022-12-22T07:48:11;100893.81;;;7.18
67829;BMP280;54626;45.436;10.942;2022-12-22T07:51:01;100908.09;;;7.17
67829;BMP280;54626;45.436;10.942;2022-12-22T07:53:28;100891.59;;;7.17
67829;BMP280;54626;45.436;10.942;2022-12-22T07:55:55;100896.09;;;7.20
67829;BMP280;54626;45.436;10.942;2022-12-22T07:58:23;100897.84;;;7.17
67829;BMP280;54626;45.436;10.942;2022-12-22T08:00:50;100900.34;;;7.15
67829;BMP280;54626;45.436;10.942;2022-12-22T08:03:17;100892.09;;;7.26
67829;BMP280;54626;45.436;10.942;2022-12-22T08:05:46;100899.34;;;7.29
67829;BMP280;54626;45.436;10.942;2022-12-22T08:08:13;100897.31;;;7.24
67829;BMP280;54626;45.436;10.942;2022-12-22T08:10:39;100900.81;;;7.30
67829;BMP280;54626;45.436;10.942;2022-12-22T08:13:06;100880.56;;;7.33
67829;BMP280;54626;45.436;10.942;2022-12-22T08:15:32;100884.28;;;7.41
67829;BMP280;54626;45.436;10.942;2022-12-22T08:17:59;100891.78;;;7.46
67829;BMP280;54626;45.436;10.942;2022-12-22T08:20:25;100892.56;;;7.46
67829;BMP280;54626;45.436;10.942;2022-12-22T08:22:53;100895.31;;;7.46
67829;BMP280;54626;45.436;10.942;2022-12-22T08:25:19;100894.31;;;7.49
67829;BMP280;54626;45.436;10.942;2022-12-22T08:27:49;100884.56;;;7.48
67829;BMP280;54626;45.436;10.942;2022-12-22T08:30:17;100895.28;;;7.57
67829;BMP280;54626;45.436;10.942;2022-12-22T08:32:45;100889.53;;;7.61
67829;BMP280;54626;45.436;10.942;2022-12-22T08:35:12;100900.78;;;7.63
67829;BMP280;54626;45.436;10.942;2022-12-22T08:37:40;100897.78;;;7.55
67829;BMP280;54626;45.436;10.942;2022-12-22T08:40:18;100899.28;;;7.62
67829;BMP280;54626;45.436;10.942;2022-12-22T08:42:47;100895.28;;;7.63
67829;BMP280;54626;45.436;10.942;2022-12-22T08:45:16;100891.25;;;7.64
67829;BMP280;54626;45.436;10.942;2022-12-22T08:47:44;100895.97;;;7.74
67829;BMP280;54626;45.436;10.942;2022-12-22T08:50:11;100888.22;;;7.84
67829;BMP280;54626;45.436;10.942;2022-12-22T08:52:38;100873.16;;;7.90
67829;BMP280;54626;45.436;10.942;2022-12-22T08:55:08;100872.91;;;7.88
67829;BMP280;54626;45.436;10.942;2022-12-22T08:57:35;100870.13;;;7.99
67829;BMP280;54626;45.436;10.942;2022-12-22T09:00:02;100882.09;;;8.07
67829;BMP280;54626;45.436;10.942;2022-12-22T09:02:29;100880.34;;;8.10
67829;BMP280;54626;45.436;10.942;2022-12-22T09:04:55;100877.53;;;8.21
67829;BMP280;54626;45.436;10.942;2022-12-22T09:07:22;100877.47;;;8.26
67829;BMP280;54626;45.436;10.942;2022-12-22T09:09:49;100867.72;;;8.30
67829;BMP280;54626;45.436;10.942;2022-12-22T09:12:16;100859.88;;;8.40
67829;BMP280;54626;45.436;10.942;2022-12-22T09:14:43;100868.63;;;8.44
67829;BMP280;54626;45.436;10.942;2022-12-22T09:17:09;100865.59;;;8.47
67829;BMP280;54626;45.436;10.942;2022-12-22T09:19:38;100870.09;;;8.50
67829;BMP280;54626;45.436;10.942;2022-12-22T09:22:08;100879.34;;;8.53
67829;BMP280;54626;45.436;10.942;2022-12-22T09:24:34;100872.78;;;8.56
67829;BMP280;54626;45.436;10.942;2022-12-22T09:27:01;100880.09;;;8.48
67829;BMP280;54626;45.436;10.942;2022-12-22T09:29:28;100872.84;;;8.50
67829;BMP280;54626;45.436;10.942;2022-12-22T09:31:55;100870.59;;;8.49
67829;BMP280;54626;45.436;10.942;2022-12-22T09:34:22;100864.50;;;8.56
67829;BMP280;54626;45.436;10.942;2022-12-22T09:36:52;100853.47;;;8.61
67829;BMP280;54626;45.436;10.942;2022-12-22T09:39:18;100859.22;;;8.63
67829;BMP280;54626;45.436;10.942;2022-12-22T09:41:55;100872.94;;;8.69
67829;BMP280;54626;45.436;10.942;2022-12-22T09:44:25;100858.16;;;8.72
67829;BMP280;54626;45.436;10.942;2022-12-22T09:46:54;100855.97;;;8.65
67829;BMP280;54626;45.436;10.942;2022-12-22T09:49:24;100868.44;;;8.66
67829;BMP280;54626;45.436;10.942;2022-12-22T09:51:54;100851.91;;;8.66
67829;BMP280;54626;45.436;10.942;2022-12-22T09:54:25;100842.94;;;8.60
67829;BMP280;54626;45.436;10.942;2022-12-22T09:56:52;100838.38;;;8.68
67829;BMP280;54626;45.436;10.942;2022-12-22T09:59:20;100839.31;;;8.76
67829;BMP280;54626;45.436;10.942;2022-12-22T10:04:48;100843.06;;;8.78
67829;BMP280;54626;45.436;10.942;2022-12-22T10:09:48;100836.78;;;8.78
67829;BMP280;54626;45.436;10.942;2022-12-22T10:12:20;100850.00;;;8.85
67829;BMP280;54626;45.436;10.942;2022-12-22T10:14:49;100854.72;;;8.90
67829;BMP280;54626;45.436;10.942;2022-12-22T10:19:43;100831.19;;;8.89
67829;BMP280;54626;45.436;10.942;2022-12-22T10:22:32;100827.28;;;9.02
67829;BMP280;54626;45.436;10.942;2022-12-22T10:25:01;100826.38;;;9.18
67829;BMP280;54626;45.436;10.942;2022-12-22T10:27:31;100823.50;;;9.29
67829;BMP280;54626;45.436;10.942;2022-12-22T10:30:18;100816.25;;;9.26
67829;BMP280;54626;45.436;10.942;2022-12-22T10:33:16;100820.75;;;9.29
67829;BMP280;54626;45.436;10.942;2022-12-22T10:38:30;100811.66;;;9.34
67829;BMP280;54626;45.436;10.942;2022-12-22T10:41:01;100818.16;;;9.37
67829;BMP280;54626;45.436;10.942;2022-12-22T10:43:39;100811.72;;;9.29
67829;BMP280;54626;45.436;10.942;2022-12-22T10:46:11;100812.66;;;9.31
67829;BMP280;54626;45.436;10.942;2022-12-22T10:48:38;100815.66;;;9.33
67829;BMP280;54626;45.436;10.942;2022-12-22T10:51:07;100812.16;;;9.33
67829;BMP280;54626;45.436;10.942;2022-12-22T10:56:07;100816.91;;;9.38
67829;BMP280;54626;45.436;10.942;2022-12-22T10:59:03;100816.13;;;9.37
67829;BMP280;54626;45.436;10.942;2022-12-22T11:01:34;100819.19;;;9.34
67829;BMP280;54626;45.436;10.942;2022-12-22T11:04:23;100807.84;;;9.37
67829;BMP280;54626;45.436;10.942;2022-12-22T11:06:51;100807.16;;;9.31
67829;BMP280;54626;45.436;10.942;2022-12-22T11:09:19;100800.81;;;9.18
67829;BMP280;54626;45.436;10.942;2022-12-22T11:12:06;100801.97;;;9.22
67829;BMP280;54626;45.436;10.942;2022-12-22T11:18:16;100812.34;;;9.16
67829;BMP280;54626;45.436;10.942;2022-12-22T11:25:45;100815.00;;;9.27
67829;BMP280;54626;45.436;10.942;2022-12-22T11:33:58;100809.78;;;9.42
67829;BMP280;54626;45.436;10.942;2022-12-22T11:39:12;100812.28;;;9.46
67829;BMP280;54626;45.436;10.942;2022-12-22T11:47:19;100788.09;;;9.70
67829;BMP280;54626;45.436;10.942;2022-12-22T11:56:28;100780.00;;;9.78
67829;BMP280;54626;45.436;10.942;2022-12-22T11:59:38;100760.56;;;9.83
67829;BMP280;54626;45.436;10.942;2022-12-22T12:07:58;100738.94;;;10.00
67829;BMP280;54626;45.436;10.942;2022-12-22T12:11:08;100743.44;;;9.72
67829;BMP280;54626;45.436;10.942;2022-12-22T12:22:01;100728.47;;;9.98
67829;BMP280;54626;45.436;10.942;2022-12-22T12:27:26;100710.78;;;10.20
67829;BMP280;54626;45.436;10.942;2022-12-22T12:30:04;100708.72;;;10.39
67829;BMP280;54626;45.436;10.942;2022-12-22T12:32:58;100704.13;;;10.54
67829;BMP280;54626;45.436;10.942;2022-12-22T12:36:08;100710.31;;;10.47
67829;BMP280;54626;45.436;10.942;2022-12-22T12:41:20;100691.53;;;10.14
67829;BMP280;54626;45.436;10.942;2022-12-22T12:43:49;100684.09;;;9.91
67829;BMP280;54626;45.436;10.942;2022-12-22T12:46:44;100687.97;;;9.70
67829;BMP280;54626;45.436;10.942;2022-12-22T12:54:44;100703.00;;;9.87
67829;BMP280;54626;45.436;10.942;2022-12-22T12:57:44;100691.50;;;9.83
67829;BMP280;54626;45.436;10.942;2022-12-22T13:09:22;100682.97;;;9.99
67829;BMP280;54626;45.436;10.942;2022-12-22T13:12:38;100680.47;;;9.83
67829;BMP280;54626;45.436;10.942;2022-12-22T13:15:31;100678.94;;;9.69
67829;BMP280;54626;45.436;10.942;2022-12-22T13:18:00;100674.41;;;9.53
67829;BMP280;54626;45.436;10.942;2022-12-22T13:20:30;100671.41;;;9.51
67829;BMP280;54626;45.436;10.942;2022-12-22T13:22:59;100689.47;;;9.52
67829;BMP280;54626;45.436;10.942;2022-12-22T13:25:47;100693.34;;;9.62
67829;BMP280;54626;45.436;10.942;2022-12-22T13:28:16;100694.66;;;9.74
67829;BMP280;54626;45.436;10.942;2022-12-22T13:30:47;100685.72;;;9.68
67829;BMP280;54626;45.436;10.942;2022-12-22T13:33:18;100685.72;;;9.68
67829;BMP280;54626;45.436;10.942;2022-12-22T13:35:46;100683.19;;;9.70
67829;BMP280;54626;45.436;10.942;2022-12-22T13:38:29;100678.94;;;9.69
67829;BMP280;54626;45.436;10.942;2022-12-22T13:40:58;100687.44;;;9.71
67829;BMP280;54626;45.436;10.942;2022-12-22T13:43:26;100680.19;;;9.68
67829;BMP280;54626;45.436;10.942;2022-12-22T13:45:55;100668.56;;;9.57
67829;BMP280;54626;45.436;10.942;2022-12-22T13:48:32;100669.50;;;9.46
67829;BMP280;54626;45.436;10.942;2022-12-22T13:51:18;100666.66;;;9.33
67829;BMP280;54626;45.436;10.942;2022-12-22T13:53:49;100659.78;;;9.21
67829;BMP280;54626;45.436;10.942;2022-12-22T13:56:42;100657.25;;;9.05
67829;BMP280;54626;45.436;10.942;2022-12-22T13:59:33;100661.34;;;8.99
67829;BMP280;54626;45.436;10.942;2022-12-22T14:04:41;100657.09;;;8.79
67829;BMP280;54626;45.436;10.942;2022-12-22T14:07:16;100658.16;;;8.71
67829;BMP280;54626;45.436;10.942;2022-12-22T14:09:45;100640.22;;;8.64
67829;BMP280;54626;45.436;10.942;2022-12-22T14:12:23;100645.50;;;8.62
67829;BMP280;54626;45.436;10.942;2022-12-22T14:14:52;100651.28;;;8.59
67829;BMP280;54626;45.436;10.942;2022-12-22T14:17:26;100651.84;;;8.52
67829;BMP280;54626;45.436;10.942;2022-12-22T14:19:56;100657.66;;;8.48
67829;BMP280;54626;45.436;10.942;2022-12-22T14:22:27;100659.66;;;8.48
67829;BMP280;54626;45.436;10.942;2022-12-22T14:24:58;100662.19;;;8.46
67829;BMP280;54626;45.436;10.942;2022-12-22T14:27:30;100653.22;;;8.40
67829;BMP280;54626;45.436;10.942;2022-12-22T14:30:02;100657.56;;;8.35
67829;BMP280;54626;45.436;10.942;2022-12-22T14:32:44;100665.59;;;8.33
67829;BMP280;54626;45.436;10.942;2022-12-22T14:37:53;100674.41;;;8.26
67829;BMP280;54626;45.436;10.942;2022-12-22T14:40:46;100669.53;;;8.38
67829;BMP280;54626;45.436;10.942;2022-12-22T14:43:24;100675.50;;;8.42
67829;BMP280;54626;45.436;10.942;2022-12-22T14:46:03;100677.00;;;8.43
67829;BMP280;54626;45.436;10.942;2022-12-22T14:48:32;100679.72;;;8.48
67829;BMP280;54626;45.436;10.942;2022-12-22T14:51:01;100688.94;;;8.51
67829;BMP280;54626;45.436;10.942;2022-12-22T14:56:33;100678.84;;;8.59
67829;BMP280;54626;45.436;10.942;2022-12-22T14:59:09;100689.59;;;8.62
67829;BMP280;54626;45.436;10.942;2022-12-22T15:01:36;100687.09;;;8.64
67829;BMP280;54626;45.436;10.942;2022-12-22T15:06:36;100687.75;;;8.70
67829;BMP280;54626;45.436;10.942;2022-12-22T15:11:31;100695.22;;;8.75
67829;BMP280;54626;45.436;10.942;2022-12-22T15:14:02;100691.91;;;8.77
67829;BMP280;54626;45.436;10.942;2022-12-22T15:16:30;100685.91;;;8.78
67829;BMP280;54626;45.436;10.942;2022-12-22T15:18:56;100688.22;;;8.74
67829;BMP280;54626;45.436;10.942;2022-12-22T15:21:25;100691.19;;;8.76
67829;BMP280;54626;45.436;10.942;2022-12-22T15:23:52;100692.97;;;8.74
67829;BMP280;54626;45.436;10.942;2022-12-22T15:26:19;100689.50;;;8.68
67829;BMP280;54626;45.436;10.942;2022-12-22T15:28:45;100673.56;;;8.61
67829;BMP280;54626;45.436;10.942;2022-12-22T15:31:12;100678.34;;;8.60
67829;BMP280;54626;45.436;10.942;2022-12-22T15:33:45;100676.84;;;8.59
67829;BMP280;54626;45.436;10.942;2022-12-22T15:36:12;100679.31;;;8.63
67829;BMP280;54626;45.436;10.942;2022-12-22T15:38:39;100680.28;;;8.65
67829;BMP280;54626;45.436;10.942;2022-12-22T15:41:06;100679.72;;;8.72
67829;BMP280;54626;45.436;10.942;2022-12-22T15:43:33;100669.44;;;8.73
67829;BMP280;54626;45.436;10.942;2022-12-22T15:46:20;100676.38;;;8.79
67829;BMP280;54626;45.436;10.942;2022-12-22T15:48:47;100671.38;;;8.78
67829;BMP280;54626;45.436;10.942;2022-12-22T15:51:21;100680.16;;;8.76
67829;BMP280;54626;45.436;10.942;2022-12-22T15:53:49;100668.38;;;8.76
67829;BMP280;54626;45.436;10.942;2022-12-22T15:56:20;100663.19;;;8.72
67829;BMP280;54626;45.436;10.942;2022-12-22T15:58:48;100663.41;;;8.74
67829;BMP280;54626;45.436;10.942;2022-12-22T16:01:15;100662.66;;;8.74
67829;BMP280;54626;45.436;10.942;2022-12-22T16:03:41;100649.41;;;8.72
67829;BMP280;54626;45.436;10.942;2022-12-22T16:06:15;100637.91;;;8.68
67829;BMP280;54626;45.436;10.942;2022-12-22T16:08:46;100646.13;;;8.50
67829;BMP280;54626;45.436;10.942;2022-12-22T16:11:15;100645.88;;;8.24
67829;BMP280;54626;45.436;10.942;2022-12-22T16:13:41;100642.50;;;8.07
67829;BMP280;54626;45.436;10.942;2022-12-22T16:16:08;100646.44;;;7.88
67829;BMP280;54626;45.436;10.942;2022-12-22T16:18:34;100643.06;;;7.71
67829;BMP280;54626;45.436;10.942;2022-12-22T16:21:05;100644.91;;;7.57
67829;BMP280;54626;45.436;10.942;2022-12-22T16:23:34;100638.69;;;7.46
67829;BMP280;54626;45.436;10.942;2022-12-22T16:26:03;100636.53;;;7.33